Latest Weather Observations for Merriwa

IDN60801

Issued at 3:03 pm EDT Monday 20 November 2017 (issued every 30 minutes, with the page automatically refreshed every 10 minutes)

About weather observations | Map of weather stations | Latest weather observations for NSW | Other Formats
Station Details ID: 061287 Name: MERRIWA (ROSCOMMON) Lat: -32.19 Lon: 150.17 Height: 375.0 m
Data from the previous 72 hours. | See also: Recent months at Merriwa
Date/Time
EDT
Temp
°C
App
Temp
°C
Dew
Point
°C
Rel
Hum
%
Delta-T
°C
Wind Press
QNH
hPa
Press
MSL
hPa
Rain since
9am
mm
Dir  Spd
km/h
Gust
km/h
Spd
kts
Gust
kts
20/03:00pm 25.2 19.5 8.2 34 9.2 ESE 28 43 15 23 1021.9 1020.8 0.0
20/02:30pm 24.9 19.2 8.4 35 9.0 E 28 41 15 22 1022.3 1021.2 0.0
20/02:09pm 24.2 18.7 9.0 38 8.3 ESE 28 46 15 25 1022.7 1021.6 0.0
20/02:00pm 25.4 20.1 11.2 41 8.1 ESE 30 43 16 23 1023.1 1021.9 0.0
20/01:30pm 23.4 18.5 10.1 43 7.4 E 26 39 14 21 1023.5 1022.3 0.0
20/01:00pm 21.7 16.7 11.1 51 5.9 ESE 28 39 15 21 1023.9 1022.8 0.0
20/12:30pm 22.1 17.4 12.1 53 5.7 ESE 28 39 15 21 1024.4 1023.3 0.0
20/12:00pm 22.0 17.5 12.5 54 5.5 ESE 28 41 15 22 1024.7 1023.6 0.0
20/11:30am 20.9 16.9 11.8 56 5.2 E 24 33 13 18 1024.7 1023.6 0.0
20/11:00am 20.2 16.2 11.7 58 4.8 E 24 37 13 20 1025.0 1023.9 0.0
20/10:30am 19.8 15.9 12.1 61 4.4 E 24 33 13 18 1024.9 1023.8 0.0
20/10:00am 18.9 14.7 11.2 61 4.3 ESE 24 33 13 18 1024.9 1023.8 0.0
20/09:30am 19.7 15.9 12.5 63 4.1 ESE 24 35 13 19 1024.9 1023.8 0.0
20/09:00am 19.1 14.7 11.7 62 4.1 ESE 26 37 14 20 1025.3 1024.2 0.0
20/08:30am 18.1 14.7 12.5 70 3.2 ESE 22 32 12 17 1025.1 1024.0 0.0
20/08:00am 16.9 13.9 12.4 75 2.5 ESE 20 28 11 15 1024.8 1023.7 0.0
20/07:30am 16.1 14.5 12.7 80 1.9 ESE 13 19 7 10 1024.4 1023.3 0.0
20/07:00am 14.7 13.9 11.8 83 1.6 E 7 9 4 5 1024.2 1023.1 0.0
20/06:30am 12.3 10.6 11.2 93 0.6 ESE 11 13 6 7 1024.0 1022.9 0.0
20/06:00am 11.2 8.7 9.8 91 0.7 ESE 13 17 7 9 1023.6 1022.4 0.0
20/05:30am 11.4 8.8 10.6 95 0.4 ESE 15 17 8 9 1023.3 1022.1 0.0
20/05:00am 11.3 10.3 10.2 93 0.6 E 6 11 3 6 1023.0 1021.8 0.0
20/04:30am 11.8 10.3 10.5 92 0.7 ESE 9 11 5 6 1023.0 1021.8 0.0
20/04:00am 12.4 9.9 11.1 92 0.7 ESE 15 20 8 11 1022.8 1021.7 0.0
20/03:30am 12.4 10.3 11.3 93 0.6 ESE 13 17 7 9 1022.7 1021.6 0.0
20/03:00am 12.7 10.4 11.6 93 0.6 ESE 15 20 8 11 1022.8 1021.7 0.0
20/02:30am 13.1 11.1 11.5 90 0.9 ESE 13 17 7 9 1023.1 1021.9 0.0
20/02:00am 13.9 11.4 12.3 90 0.9 SE 17 20 9 11 1023.3 1022.1 0.0
20/01:30am 14.4 11.7 13.0 91 0.8 ESE 19 22 10 12 1023.4 1022.2 0.0
20/01:00am 14.7 11.9 13.2 91 0.8 ESE 20 26 11 14 1023.3 1022.1 0.0
20/12:30am 14.7 11.4 12.9 89 1.0 SE 22 30 12 16 1023.5 1022.3 0.0
20/12:00am 15.0 12.1 13.0 88 1.1 ESE 20 32 11 17 1023.5 1022.3 0.0
 
Date/Time
EDT
Temp
°C
App
Temp
°C
Dew
Point
°C
Rel
Hum
%
Delta-T
°C
Wind Press
QNH
hPa
Press
MSL
hPa
Rain since
9am
mm
Dir  Spd
km/h
Gust
km/h
Spd
kts
Gust
kts
19/11:30pm 15.2 11.9 12.9 86 1.3 ESE 22 33 12 18 1023.5 1022.3 0.0
19/11:00pm 15.4 10.9 12.7 84 1.5 ESE 28 37 15 20 1023.5 1022.3 0.0
19/10:30pm 15.7 12.7 12.5 81 1.8 ESE 20 32 11 17 1023.5 1022.3 0.0
19/10:00pm 15.8 12.5 11.6 76 2.3 ESE 20 35 11 19 1023.3 1022.1 0.0
19/09:30pm 16.4 12.7 11.6 73 2.7 ESE 22 32 12 17 1023.3 1022.1 0.0
19/09:00pm 17.1 12.8 10.9 67 3.4 ESE 24 33 13 18 1022.7 1021.6 0.0
19/08:30pm 17.7 13.0 10.8 64 3.8 ESE 26 43 14 23 1022.0 1020.9 0.0
19/08:00pm 18.4 14.0 10.5 60 4.3 E 24 32 13 17 1021.7 1020.6 0.0
19/07:30pm 19.3 15.6 10.3 56 4.9 ESE 20 28 11 15 1021.4 1020.3 0.0
19/07:00pm 20.4 15.7 10.5 53 5.5 ESE 26 35 14 19 1020.9 1019.7 0.0
19/06:30pm 21.1 15.7 10.9 52 5.7 ESE 30 39 16 21 1020.5 1019.3 0.0
19/06:00pm 21.6 15.7 11.0 51 5.9 ESE 33 43 18 23 1020.4 1019.2 0.0
19/05:30pm 22.1 16.5 11.5 51 6.0 ESE 32 43 17 23 1020.6 1019.4 0.0
19/05:00pm 22.0 17.1 12.5 54 5.5 ESE 30 39 16 21 1020.6 1019.4 0.0
19/04:30pm 22.1 17.8 12.1 53 5.7 E 26 35 14 19 1020.6 1019.4 0.0
19/04:00pm 22.0 17.1 12.5 54 5.5 ESE 30 39 16 21 1020.7 1019.5 0.0
19/03:30pm 22.1 17.6 12.6 55 5.5 ESE 28 37 15 20 1020.9 1019.7 0.0
19/03:00pm 21.4 16.4 12.3 56 5.2 ESE 30 39 16 21 1021.2 1020.0 0.0
19/02:30pm 20.4 15.5 12.4 60 4.6 ESE 30 39 16 21 1021.6 1020.5 0.0
19/02:00pm 21.1 15.2 12.5 58 4.9 ESE 35 50 19 27 1021.7 1020.6 0.0
19/01:30pm 21.1 17.4 12.8 59 4.8 E 24 33 13 18 1021.7 1020.6 0.0
19/01:00pm 21.9 17.8 12.7 56 5.3 ESE 26 37 14 20 1021.7 1020.6 0.0
19/12:30pm 22.5 18.2 13.3 56 5.4 ESE 28 39 15 21 1022.0 1020.9 0.0
19/12:00pm 21.8 17.8 14.2 62 4.5 SE 28 35 15 19 1022.3 1021.2 0.0
19/11:30am 20.7 16.5 13.4 63 4.3 ESE 28 41 15 22 1022.5 1021.4 0.0
19/11:00am 19.8 15.7 13.7 68 3.5 ESE 28 39 15 21 1022.6 1021.5 0.0
19/10:30am 19.9 17.1 14.3 70 3.3 E 22 37 12 20 1022.6 1021.5 0.0
19/10:00am 18.5 14.9 14.2 76 2.5 ESE 26 33 14 18 1022.5 1021.4 0.0
19/09:30am 18.1 14.6 14.4 79 2.2 E 26 35 14 19 1022.6 1021.5 0.0
19/09:00am 17.4 14.7 14.5 83 1.7 ESE 22 33 12 18 1022.5 1021.4 8.2
19/08:44am 16.9 13.8 14.5 86 1.4 ESE 24 35 13 19 1022.4 1021.3 8.2
19/08:30am 16.9 13.5 14.7 87 1.3 ESE 26 33 14 18 1022.3 1021.2 8.2
19/08:00am 16.4 13.8 14.9 91 0.9 ESE 22 33 12 18 1022.0 1020.9 8.2
19/07:30am 15.6 13.4 14.5 93 0.6 ESE 19 26 10 14 1021.5 1020.4 8.2
19/07:05am 15.2 13.0 14.4 95 0.5 ESE 19 24 10 13 1021.2 1020.0 8.2
19/07:00am 15.1 12.9 14.3 95 0.5 ESE 19 20 10 11 1021.1 1019.9 8.2
19/06:30am 14.5 12.4 13.7 95 0.5 ESE 17 26 9 14 1020.6 1019.4 8.2
19/06:25am 14.5 12.1 13.7 95 0.5 ESE 19 30 10 16 1020.5 1019.3 8.2
19/06:00am 14.4 12.3 13.6 95 0.5 ESE 17 22 9 12 1020.2 1019.0 8.2
19/05:53am 14.4 12.3 13.6 95 0.5 ESE 17 22 9 12 1020.2 1019.0 8.2
19/05:30am 14.3 11.7 13.3 94 0.6 SE 19 24 10 13 1019.7 1018.6 8.2
19/05:00am 14.2 12.0 13.2 94 0.6 ESE 17 24 9 13 1019.3 1018.2 8.2
19/04:30am 14.2 12.0 13.2 94 0.6 ESE 17 20 9 11 1019.1 1018.0 8.2
19/04:00am 14.4 12.7 13.6 95 0.5 ESE 15 19 8 10 1018.9 1017.7 8.2
19/03:30am 14.3 12.9 13.5 95 0.5 SE 13 15 7 8 1018.9 1017.7 8.2
19/03:00am 14.7 13.4 13.6 93 0.6 ESE 13 17 7 9 1019.0 1017.8 8.2
19/02:30am 14.9 13.2 13.6 92 0.7 ESE 15 19 8 10 1019.1 1018.0 8.2
19/02:00am 15.4 13.8 13.9 91 0.9 ESE 15 20 8 11 1019.2 1018.1 8.2
19/01:30am 15.4 12.8 13.9 91 0.9 ESE 20 24 11 13 1019.2 1018.1 8.2
19/01:00am 15.4 14.4 14.6 95 0.5 ESE 13 19 7 10 1019.4 1018.3 8.0
19/12:30am 15.1 15.3 14.6 97 0.3 E 7 11 4 6 1019.7 1018.6 8.0
19/12:00am 15.1 14.9 14.6 97 0.3 ESE 9 13 5 7 1019.9 1018.8 8.0
 
Date/Time
EDT
Temp
°C
App
Temp
°C
Dew
Point
°C
Rel
Hum
%
Delta-T
°C
Wind Press
QNH
hPa
Press
MSL
hPa
Rain since
9am
mm
Dir  Spd
km/h
Gust
km/h
Spd
kts
Gust
kts
18/11:30pm 15.5 14.7 15.0 97 0.3 ESE 13 17 7 9 1019.9 1018.8 8.0
18/11:03pm 15.5 14.4 15.2 98 0.2 ESE 15 20 8 11 1019.9 1018.8 8.0
18/11:00pm 15.6 14.1 15.3 98 0.2 ESE 17 24 9 13 1019.9 1018.8 8.0
18/10:30pm 15.8 15.1 15.5 98 0.2 ESE 13 17 7 9 1019.9 1018.8 8.0
18/10:00pm 15.9 14.9 15.6 98 0.2 E 15 19 8 10 1019.6 1018.5 8.0
18/09:30pm 15.9 14.4 15.4 97 0.3 E 17 26 9 14 1019.4 1018.3 8.0
18/09:00pm 16.3 15.7 15.7 96 0.4 E 13 20 7 11 1019.1 1018.0 7.8
18/08:41pm 16.5 16.4 15.9 96 0.4 E 11 15 6 8 1019.0 1017.8 7.6
18/08:30pm 16.5 16.4 15.9 96 0.4 E 11 15 6 8 1018.9 1017.7 7.4
18/08:00pm 16.7 15.7 15.6 93 0.7 ESE 15 19 8 10 1018.6 1017.4 7.4
18/07:30pm 17.3 15.7 14.9 86 1.4 ESE 17 24 9 13 1018.3 1017.1 7.0
18/07:00pm 17.4 15.4 14.9 85 1.5 ESE 19 26 10 14 1017.8 1016.6 7.0
18/06:30pm 17.6 16.1 15.2 86 1.4 ESE 17 20 9 11 1017.7 1016.5 7.0
18/06:00pm 17.6 16.7 15.8 89 1.1 ESE 15 19 8 10 1017.4 1016.2 7.0
18/05:30pm 17.5 16.9 15.7 89 1.1 E 13 17 7 9 1017.5 1016.3 6.8
18/05:00pm 18.3 17.0 15.7 85 1.6 ESE 17 20 9 11 1017.7 1016.5 6.2
18/04:30pm 19.0 18.1 14.9 77 2.4 SE 13 17 7 9 1017.7 1016.5 6.2
18/04:00pm 18.7 17.6 15.4 81 2.0 SSE 15 20 8 11 1017.8 1016.6 6.2
18/03:30pm 18.9 18.3 14.6 76 2.5 S 11 17 6 9 1018.0 1016.8 6.2
18/03:00pm 18.9 18.1 12.9 68 3.4 ESE 9 17 5 9 1018.3 1017.1 6.2
18/02:30pm 18.3 18.2 13.8 75 2.6 SE 7 11 4 6 1018.6 1017.4 6.2
18/02:00pm 17.8 18.3 13.9 78 2.3 NE 4 7 2 4 1018.9 1017.7 6.2
18/01:30pm 16.7 16.8 14.0 84 1.6 ENE 6 11 3 6 1019.1 1018.0 6.2
18/01:00pm 16.4 16.7 15.1 92 0.8 NE 7 11 4 6 1019.4 1018.3 6.2
18/12:30pm 15.9 15.0 14.9 94 0.6 NE 13 17 7 9 1019.6 1018.5 6.0
18/12:00pm 15.8 14.2 15.0 95 0.5 NE 17 26 9 14 1019.7 1018.6 5.4
18/11:30am 15.5 14.7 15.0 97 0.3 E 13 19 7 10 1019.6 1018.5 4.4
18/11:00am 15.3 15.1 14.8 97 0.3 ENE 9 15 5 8 1019.5 1018.4 3.0
18/10:30am 15.3 15.0 14.5 95 0.5 ENE 9 13 5 7 1019.3 1018.2 1.6
18/10:00am 15.1 14.5 14.6 97 0.3 ENE 11 17 6 9 1019.1 1018.0 1.6
18/09:30am 15.1 13.2 14.1 94 0.6 ENE 17 26 9 14 1019.0 1017.8 0.6
18/09:00am 15.2 13.5 14.7 97 0.3 NE 17 20 9 11 1018.9 1017.7 6.2
18/08:30am 15.3 13.4 14.2 93 0.6 NE 17 28 9 15 1018.9 1017.7 4.4
18/08:00am 16.1 16.2 15.5 96 0.4 E 9 13 5 7 1018.3 1017.1 3.2
18/07:30am 15.8 15.8 15.2 96 0.4 E 9 11 5 6 1017.8 1016.6 3.2
18/07:00am 15.7 15.7 15.1 96 0.4 ENE 9 13 5 7 1017.5 1016.3 2.8
18/06:30am 15.9 15.9 15.1 95 0.5 E 9 15 5 8 1017.1 1016.0 1.8
18/06:00am 15.9 15.5 15.1 95 0.5 ESE 11 15 6 8 1016.8 1015.7 1.6
18/05:30am 16.1 16.6 15.1 94 0.6 E 6 9 3 5 1016.5 1015.3 1.4
18/05:00am 16.1 16.6 15.1 94 0.6 E 6 7 3 4 1016.4 1015.2 1.2
18/04:30am 16.2 16.8 15.2 94 0.6 ENE 6 7 3 4 1016.2 1015.0 1.2
18/04:00am 16.1 16.5 15.3 95 0.5 NE 7 9 4 5 1016.3 1015.1 1.2
18/03:30am 16.1 16.5 15.3 95 0.5 ENE 7 9 4 5 1016.3 1015.1 1.0
18/03:00am 15.9 16.5 15.3 96 0.4 NE 6 7 3 4 1016.4 1015.2 1.0
18/02:30am 16.1 16.7 15.3 95 0.5 NE 6 7 3 4 1016.6 1015.4 1.0
18/02:00am 16.2 16.6 15.2 94 0.6 NE 7 7 4 4 1016.6 1015.4 1.0
18/01:30am 16.1 17.8 15.1 94 0.6 CALM 0 0 0 0 1016.9 1015.8 1.0
18/01:00am 16.5 18.1 15.0 91 0.9 CALM 0 0 0 0 1017.1 1016.0 1.0
18/12:30am 17.0 17.6 15.2 89 1.1 NW 6 7 3 4 1017.4 1016.2 1.0
18/12:00am 17.2 17.3 15.4 89 1.1 NW 9 11 5 6 1017.8 1016.6 1.0
 
Date/Time
EDT
Temp
°C
App
Temp
°C
Dew
Point
°C
Rel
Hum
%
Delta-T
°C
Wind Press
QNH
hPa
Press
MSL
hPa
Rain since
9am
mm
Dir  Spd
km/h
Gust
km/h
Spd
kts
Gust
kts
17/11:30pm 17.4 17.1 15.4 88 1.2 NW 11 15 6 8 1017.8 1016.6 1.0
17/11:00pm 17.7 18.3 15.9 89 1.1 WNW 7 9 4 5 1017.7 1016.5 1.0
17/10:30pm 17.9 18.3 15.3 85 1.5 W 7 9 4 5 1017.3 1016.1 1.0
17/10:00pm 17.8 17.6 15.6 87 1.3 NNW 11 13 6 7 1016.9 1015.8 1.0
17/09:30pm 18.1 19.3 15.0 82 1.8 ENE 2 7 1 4 1016.5 1015.3 1.0
17/09:00pm 18.8 18.2 14.7 77 2.4 ENE 11 15 6 8 1016.1 1014.9 1.0
17/08:30pm 18.9 18.4 14.8 77 2.4 NE 11 17 6 9 1016.0 1014.8 1.0
17/08:00pm 19.1 18.9 14.8 76 2.5 E 9 11 5 6 1015.8 1014.6 1.0
17/07:30pm 18.8 18.1 15.3 80 2.1 NE 13 17 7 9 1015.4 1014.2 1.0
17/07:00pm 19.1 18.1 16.7 86 1.5 E 17 24 9 13 1014.3 1013.1 1.0
17/06:30pm 20.0 18.8 16.2 79 2.3 ENE 17 28 9 15 1013.6 1012.4 0.4
17/06:00pm 23.3 19.7 13.2 53 5.9 E 24 30 13 16 1013.6 1012.4 0.0
17/05:30pm 23.7 19.5 12.4 49 6.6 E 26 39 14 21 1013.3 1012.1 0.0
17/05:00pm 25.2 20.6 14.6 51 6.4 E 32 41 17 22 1013.3 1012.1 0.0
17/04:30pm 25.9 21.9 14.1 48 7.1 E 28 39 15 21 1012.9 1011.7 0.0
17/04:00pm 26.2 22.7 14.6 48 7.1 ESE 26 35 14 19 1012.9 1011.7 0.0
17/03:30pm 25.7 23.2 14.2 49 6.9 ESE 20 28 11 15 1013.2 1012.0 0.0

Other Formats:

Comma delimited format used in spreadsheet applications
http://www.bom.gov.au/fwo/IDN60801/IDN60801.95754.axf

JavaScript Object Notation format (JSON) in row-major order
http://www.bom.gov.au/fwo/IDN60801/IDN60801.95754.json